createdAt,value
2023-05-15T00:00:10.853Z,2.60
2023-05-15T00:02:58.416Z,2.55
2023-05-15T00:05:25.676Z,2.55
2023-05-15T00:07:53.188Z,2.40
2023-05-15T00:10:57.478Z,2.13
2023-05-15T00:13:28.968Z,2.15
2023-05-15T00:15:55.936Z,2.45
2023-05-15T00:18:23.958Z,1.88
2023-05-15T00:20:51.005Z,2.70
2023-05-15T00:23:18.539Z,2.50
2023-05-15T00:25:46.840Z,2.00
2023-05-15T00:28:14.146Z,2.70
2023-05-15T00:30:41.166Z,2.30
2023-05-15T00:33:08.614Z,2.60
2023-05-15T00:35:35.594Z,2.53
2023-05-15T00:38:02.865Z,2.03
2023-05-15T00:40:31.052Z,2.30
2023-05-15T00:43:02.124Z,2.60
2023-05-15T00:45:30.376Z,2.33
2023-05-15T00:47:58.979Z,2.28
2023-05-15T00:50:26.717Z,2.13
2023-05-15T00:52:55.660Z,2.30
2023-05-15T00:55:23.024Z,2.08
2023-05-15T00:57:52.817Z,2.50
2023-05-15T01:00:21.481Z,2.10
2023-05-15T01:02:49.042Z,2.50
2023-05-15T01:05:16.281Z,2.60
2023-05-15T01:07:52.483Z,2.22
2023-05-15T01:10:21.331Z,2.60
2023-05-15T01:12:54.168Z,2.17
2023-05-15T01:15:23.758Z,2.45
2023-05-15T01:17:51.826Z,2.30
2023-05-15T01:20:21.144Z,2.25
2023-05-15T01:23:00.109Z,1.98
2023-05-15T01:25:46.147Z,1.88
2023-05-15T01:28:21.620Z,2.13
2023-05-15T01:36:24.937Z,2.33
2023-05-15T01:38:55.748Z,2.30
2023-05-15T01:41:29.575Z,2.30
2023-05-15T01:44:02.744Z,2.20
2023-05-15T01:46:31.787Z,2.25
2023-05-15T01:51:31.207Z,2.38
2023-05-15T01:53:59.590Z,2.15
2023-05-15T01:56:27.551Z,2.38
2023-05-15T01:58:56.008Z,2.28
2023-05-15T02:03:54.490Z,2.17
2023-05-15T02:06:22.691Z,2.30
2023-05-15T02:08:51.254Z,2.30
2023-05-15T02:13:46.205Z,2.22
2023-05-15T02:16:13.633Z,2.42
2023-05-15T02:18:42.069Z,2.25
2023-05-15T02:21:09.962Z,2.30
2023-05-15T02:23:37.254Z,2.33
2023-05-15T02:26:14.054Z,2.20
2023-05-15T02:28:50.130Z,2.10
2023-05-15T02:31:24.456Z,2.30
2023-05-15T02:34:00.260Z,2.33
2023-05-15T02:36:32.779Z,2.22
2023-05-15T02:39:00.838Z,2.17
2023-05-15T02:41:29.595Z,2.10
2023-05-15T02:43:57.349Z,1.98
2023-05-15T02:46:25.152Z,2.47
2023-05-15T02:48:54.037Z,2.30
2023-05-15T02:51:21.350Z,2.17
2023-05-15T02:53:49.179Z,2.33
2023-05-15T02:56:16.514Z,2.47
2023-05-15T02:58:43.538Z,2.13
2023-05-15T03:01:10.809Z,2.70
2023-05-15T03:03:38.033Z,2.30
2023-05-15T03:06:07.089Z,2.17
2023-05-15T03:08:34.087Z,2.13
2023-05-15T03:11:01.490Z,1.98
2023-05-15T03:13:28.667Z,2.40
2023-05-15T03:15:55.999Z,2.33
2023-05-15T03:18:23.076Z,2.30
2023-05-15T03:20:52.762Z,3.08
2023-05-15T03:23:21.227Z,2.08
2023-05-15T03:25:48.561Z,3.13
2023-05-15T03:28:15.718Z,2.13
2023-05-15T03:30:44.238Z,2.63
2023-05-15T03:33:11.381Z,2.22
2023-05-15T03:35:38.665Z,2.78
2023-05-15T03:38:05.662Z,2.72
2023-05-15T03:40:34.436Z,2.40
2023-05-15T03:43:01.359Z,2.22
2023-05-15T03:45:28.998Z,2.15
2023-05-15T03:47:56.115Z,2.50
2023-05-15T03:50:23.404Z,2.53
2023-05-15T03:52:50.624Z,2.20
2023-05-15T03:55:18.147Z,2.28
2023-05-15T03:57:46.681Z,2.83
2023-05-15T04:02:42.774Z,2.58
2023-05-15T04:05:10.725Z,2.30
2023-05-15T04:07:38.083Z,2.20
2023-05-15T04:10:06.283Z,3.50
2023-05-15T04:12:35.177Z,3.07
2023-05-15T04:15:16.944Z,3.45
2023-05-15T04:17:44.254Z,2.70
2023-05-15T04:20:13.023Z,2.78
2023-05-15T04:22:40.380Z,2.90
2023-05-15T04:25:09.154Z,2.90
2023-05-15T04:27:36.554Z,2.45
2023-05-15T04:30:04.476Z,3.63
2023-05-15T04:32:36.170Z,3.38
2023-05-15T04:35:11.720Z,3.50
2023-05-15T04:37:39.560Z,3.30
2023-05-15T04:40:08.752Z,3.92
2023-05-15T04:45:07.282Z,3.33
2023-05-15T04:50:03.149Z,3.60
2023-05-15T04:52:30.473Z,2.90
2023-05-15T04:54:58.358Z,3.28
2023-05-15T04:57:25.849Z,3.00
2023-05-15T04:59:53.441Z,2.85
2023-05-15T05:04:50.856Z,4.13
2023-05-15T05:07:17.985Z,3.17
2023-05-15T05:09:45.503Z,2.88
2023-05-15T05:12:12.564Z,2.70
2023-05-15T05:14:42.268Z,3.65
2023-05-15T05:17:10.642Z,3.13
2023-05-15T05:19:37.975Z,3.38
2023-05-15T05:22:07.683Z,3.28
2023-05-15T05:24:37.488Z,3.22
2023-05-15T05:27:05.071Z,2.80
2023-05-15T05:29:32.614Z,3.17
2023-05-15T05:32:00.500Z,3.08
2023-05-15T05:34:28.595Z,3.22
2023-05-15T05:36:56.575Z,2.90
2023-05-15T05:39:25.989Z,2.50
2023-05-15T05:41:53.490Z,3.15
2023-05-15T05:44:21.939Z,3.83
2023-05-15T05:46:50.170Z,3.05
2023-05-15T05:49:22.513Z,2.22
2023-05-15T05:51:51.103Z,2.60
2023-05-15T05:54:19.969Z,2.55
2023-05-15T05:56:50.909Z,2.70
2023-05-15T05:59:18.748Z,2.70
2023-05-15T06:01:46.007Z,2.85
2023-05-15T06:04:13.653Z,3.78
2023-05-15T06:06:41.484Z,2.40
2023-05-15T06:09:09.527Z,2.60
2023-05-15T06:11:37.646Z,2.03
2023-05-15T06:14:08.491Z,2.63
2023-05-15T06:16:35.808Z,2.40
2023-05-15T06:19:03.536Z,2.15
2023-05-15T06:21:31.076Z,2.33
2023-05-15T06:23:59.207Z,2.30
2023-05-15T06:26:26.448Z,2.13
2023-05-15T06:28:54.813Z,2.53
2023-05-15T06:31:24.349Z,1.92
2023-05-15T06:33:52.090Z,2.60
2023-05-15T06:36:19.475Z,2.38
2023-05-15T06:38:51.012Z,2.63
2023-05-15T06:41:19.793Z,2.03
2023-05-15T06:43:48.277Z,2.38
2023-05-15T06:46:20.336Z,1.70
2023-05-15T06:48:53.086Z,2.33
2023-05-15T06:51:20.932Z,2.15
2023-05-15T06:53:48.661Z,2.40
2023-05-15T06:56:15.941Z,2.00
2023-05-15T06:58:47.564Z,2.80
2023-05-15T07:01:14.879Z,2.70
2023-05-15T07:03:43.174Z,2.25
2023-05-15T07:06:11.953Z,2.45
2023-05-15T07:08:39.751Z,2.80
2023-05-15T07:11:07.180Z,2.53
2023-05-15T07:13:35.362Z,2.60
2023-05-15T07:16:03.156Z,2.28
2023-05-15T07:18:31.004Z,2.22
2023-05-15T07:20:58.094Z,2.30
2023-05-15T07:23:30.025Z,2.88
2023-05-15T07:25:58.476Z,2.10
2023-05-15T07:28:26.743Z,2.60
2023-05-15T07:30:54.873Z,2.58
2023-05-15T07:33:24.883Z,3.05
2023-05-15T07:35:52.363Z,2.88
2023-05-15T07:38:21.380Z,2.87
2023-05-15T07:43:20.721Z,3.20
2023-05-15T07:45:51.153Z,3.38
2023-05-15T07:48:20.723Z,2.28
2023-05-15T07:50:51.712Z,2.70
2023-05-15T07:53:22.869Z,2.70
2023-05-15T07:55:52.198Z,2.85
2023-05-15T07:58:20.802Z,2.78
2023-05-15T08:00:52.302Z,3.40
2023-05-15T08:03:21.486Z,2.40
2023-05-15T08:05:52.047Z,2.70
2023-05-15T08:08:28.004Z,2.30
2023-05-15T08:11:00.345Z,2.80
2023-05-15T08:13:33.131Z,2.42
2023-05-15T08:16:07.525Z,2.45
2023-05-15T08:18:40.141Z,2.78
2023-05-15T08:21:09.566Z,2.67
2023-05-15T08:23:39.913Z,2.28
2023-05-15T08:26:08.804Z,2.70
2023-05-15T08:28:36.161Z,3.40
2023-05-15T08:31:04.326Z,2.90
2023-05-15T08:33:37.714Z,3.70
2023-05-15T08:38:49.202Z,5.68
2023-05-15T08:41:40.734Z,2.95
2023-05-15T08:44:12.980Z,5.93
2023-05-15T08:46:40.550Z,3.33
2023-05-15T08:49:15.894Z,3.22
2023-05-15T08:51:43.436Z,3.05
2023-05-15T08:54:13.202Z,2.95
2023-05-15T08:56:42.176Z,2.93
2023-05-15T08:59:10.480Z,2.97
2023-05-15T09:01:39.389Z,2.60
2023-05-15T09:04:07.832Z,2.83
2023-05-15T09:06:37.095Z,3.23
2023-05-15T09:09:06.267Z,2.90
2023-05-15T09:11:35.603Z,2.83
2023-05-15T09:14:07.614Z,3.17
2023-05-15T09:16:37.181Z,3.75
2023-05-15T09:19:06.321Z,3.45
2023-05-15T09:21:34.665Z,2.80
2023-05-15T09:24:21.210Z,2.83
2023-05-15T09:27:02.983Z,6.20
2023-05-15T09:29:33.614Z,3.45
2023-05-15T09:32:05.134Z,3.17
2023-05-15T09:34:34.361Z,2.88
2023-05-15T09:39:30.807Z,3.22
2023-05-15T09:42:07.284Z,3.27
2023-05-15T09:44:42.853Z,3.20
2023-05-15T09:47:12.668Z,2.90
2023-05-15T09:49:44.895Z,3.13
2023-05-15T09:52:12.859Z,3.33
2023-05-15T09:54:45.902Z,4.28
2023-05-15T09:57:16.428Z,3.35
2023-05-15T09:59:48.706Z,3.33
2023-05-15T10:02:28.229Z,2.95
2023-05-15T10:04:57.359Z,3.20
2023-05-15T10:07:29.541Z,3.72
2023-05-15T10:09:57.437Z,3.20
2023-05-15T10:12:27.020Z,2.97
2023-05-15T10:15:09.201Z,3.03
2023-05-15T10:17:37.722Z,2.92
2023-05-15T10:20:10.684Z,3.60
2023-05-15T10:22:43.032Z,4.80
2023-05-15T10:25:18.778Z,3.70
2023-05-15T10:28:02.365Z,3.05
2023-05-15T10:30:35.645Z,3.47
2023-05-15T10:33:06.132Z,2.70
2023-05-15T10:35:36.478Z,3.50
2023-05-15T10:38:06.219Z,3.00
2023-05-15T10:40:38.884Z,2.92
2023-05-15T10:43:09.515Z,2.47
2023-05-15T10:45:41.268Z,2.40
2023-05-15T10:48:12.532Z,2.45
2023-05-15T10:50:41.688Z,2.20
2023-05-15T10:53:12.258Z,2.47
2023-05-15T10:55:40.354Z,2.15
2023-05-15T10:58:10.927Z,2.90
2023-05-15T11:00:45.445Z,2.10
2023-05-15T11:03:28.579Z,2.53
2023-05-15T11:06:11.182Z,2.50
2023-05-15T11:08:39.616Z,2.70
2023-05-15T11:11:07.989Z,2.50
2023-05-15T11:14:14.774Z,2.30
2023-05-15T11:17:06.269Z,2.88
2023-05-15T11:19:42.314Z,2.47
2023-05-15T11:22:20.988Z,2.35
2023-05-15T11:24:51.383Z,2.30
2023-05-15T11:27:21.826Z,2.40
2023-05-15T11:30:12.859Z,2.42
2023-05-15T11:32:52.012Z,3.33
2023-05-15T11:35:23.235Z,2.33
2023-05-15T11:37:54.161Z,3.75
2023-05-15T11:40:24.477Z,2.50
2023-05-15T11:43:02.983Z,2.33
2023-05-15T11:45:31.945Z,2.63
2023-05-15T11:48:06.327Z,2.30
2023-05-15T11:50:38.046Z,2.38
2023-05-15T11:53:06.939Z,2.42
2023-05-15T12:00:31.640Z,2.20
2023-05-15T12:03:03.988Z,2.67
2023-05-15T12:05:31.918Z,2.90
2023-05-15T12:08:01.028Z,2.50
2023-05-15T12:10:30.363Z,2.78
2023-05-15T12:12:59.165Z,2.33
2023-05-15T12:15:27.107Z,3.22
2023-05-15T12:17:56.643Z,2.28
2023-05-15T12:20:31.285Z,2.60
2023-05-15T12:22:59.474Z,2.72
2023-05-15T12:25:28.126Z,3.00
2023-05-15T12:27:58.858Z,2.33
2023-05-15T12:30:27.683Z,2.60
2023-05-15T12:33:01.520Z,2.10
2023-05-15T12:35:30.089Z,2.60
2023-05-15T12:37:58.135Z,2.55
2023-05-15T12:40:26.376Z,2.00
2023-05-15T12:42:58.004Z,2.90
2023-05-15T12:45:27.427Z,2.30
2023-05-15T12:48:01.653Z,2.50
2023-05-15T12:50:36.309Z,2.10
2023-05-15T12:53:06.908Z,2.65
2023-05-15T12:55:40.502Z,2.38
2023-05-15T12:58:24.294Z,2.65
2023-05-15T13:00:53.495Z,2.35
2023-05-15T13:03:22.404Z,2.00
2023-05-15T13:05:52.567Z,2.55
2023-05-15T13:08:21.622Z,2.38
2023-05-15T13:10:57.548Z,3.40
2023-05-15T13:13:26.858Z,2.70
2023-05-15T13:15:55.293Z,2.50
2023-05-15T13:18:23.962Z,2.30
2023-05-15T13:20:55.557Z,2.40
2023-05-15T13:23:27.263Z,2.30
2023-05-15T13:25:56.770Z,2.67
2023-05-15T13:28:24.706Z,2.20
2023-05-15T13:33:21.007Z,2.50
2023-05-15T13:35:48.893Z,2.15
2023-05-15T13:38:18.105Z,2.47
2023-05-15T13:40:47.106Z,2.42
2023-05-15T13:43:15.738Z,2.22
2023-05-15T13:45:44.106Z,2.30
2023-05-15T13:48:11.649Z,2.72
2023-05-15T13:50:44.267Z,2.25
2023-05-15T13:53:12.598Z,2.30
2023-05-15T13:55:43.012Z,2.00
2023-05-15T13:58:11.788Z,2.35
2023-05-15T14:00:41.376Z,2.80
2023-05-15T14:03:09.106Z,2.60
2023-05-15T14:05:38.600Z,3.00
2023-05-15T14:08:06.597Z,2.37
2023-05-15T14:10:38.194Z,3.08
2023-05-15T14:13:09.882Z,2.90
2023-05-15T14:15:38.648Z,2.42
2023-05-15T14:18:08.170Z,2.55
2023-05-15T14:20:39.361Z,2.92
2023-05-15T14:23:06.910Z,2.45
2023-05-15T14:25:43.515Z,2.83
2023-05-15T14:28:18.786Z,2.80
2023-05-15T14:30:47.921Z,2.50
2023-05-15T14:33:16.900Z,3.38
2023-05-15T14:35:47.860Z,2.75
2023-05-15T14:38:15.247Z,2.80
2023-05-15T14:40:43.294Z,3.23
2023-05-15T14:43:20.382Z,2.17
2023-05-15T14:45:49.496Z,2.90
2023-05-15T14:48:18.194Z,2.95
2023-05-15T14:50:45.693Z,2.72
2023-05-15T14:53:13.295Z,2.22
2023-05-15T14:59:02.298Z,2.38
2023-05-15T15:02:30.714Z,2.60
2023-05-15T15:08:08.923Z,2.60
2023-05-15T15:10:39.663Z,2.25
2023-05-15T15:22:03.007Z,2.10
2023-05-15T15:24:36.391Z,2.40
2023-05-15T15:27:07.004Z,2.20
2023-05-15T15:29:37.617Z,2.40
2023-05-15T15:32:05.567Z,2.47
2023-05-15T15:34:33.431Z,2.47
2023-05-15T15:37:00.671Z,2.60
2023-05-15T15:39:32.154Z,2.40
2023-05-15T15:42:07.942Z,2.38
2023-05-15T15:44:39.376Z,2.85
2023-05-15T15:47:06.954Z,2.47
2023-05-15T15:49:53.506Z,2.70
2023-05-15T16:01:07.557Z,2.50
2023-05-15T16:10:10.595Z,3.05
2023-05-15T16:13:00.332Z,4.82
2023-05-15T16:15:48.013Z,3.30
2023-05-15T16:18:15.906Z,3.58
2023-05-15T16:21:06.977Z,4.15
2023-05-15T16:23:41.851Z,6.35
2023-05-15T16:26:12.652Z,4.43
2023-05-15T16:28:42.789Z,4.25
2023-05-15T16:31:19.582Z,4.35
2023-05-15T16:33:47.894Z,4.10
2023-05-15T16:39:25.554Z,3.17
2023-05-15T16:42:10.429Z,3.22
2023-05-15T16:44:40.778Z,2.50
2023-05-15T16:47:13.949Z,2.60
2023-05-15T16:49:47.624Z,3.05
2023-05-15T17:06:55.288Z,3.95
2023-05-15T17:09:26.083Z,4.15
2023-05-15T17:11:53.151Z,3.72
2023-05-15T17:14:24.471Z,3.88
2023-05-15T17:16:51.889Z,4.47
2023-05-15T17:19:20.772Z,4.35
2023-05-15T17:21:48.104Z,4.15
2023-05-15T17:24:19.396Z,4.45
2023-05-15T17:26:47.438Z,4.18
2023-05-15T17:29:17.133Z,5.05
2023-05-15T17:31:46.223Z,4.20
2023-05-15T17:36:43.613Z,3.88
2023-05-15T17:39:12.561Z,3.95
2023-05-15T17:41:42.559Z,3.42
2023-05-15T17:44:11.105Z,3.80
2023-05-15T17:46:38.462Z,4.20
2023-05-15T17:49:07.071Z,4.60
2023-05-15T17:51:37.132Z,4.30
2023-05-15T17:54:12.663Z,4.63
2023-05-15T17:56:41.849Z,4.40
2023-05-15T17:59:09.199Z,4.93
2023-05-15T18:01:36.735Z,4.75
2023-05-15T18:04:04.773Z,4.80
2023-05-15T18:06:34.379Z,4.60
2023-05-15T18:09:04.071Z,4.75
2023-05-15T18:11:33.035Z,4.70
2023-05-15T18:14:06.329Z,5.63
2023-05-15T18:16:38.482Z,5.40
2023-05-15T18:19:09.974Z,5.22
2023-05-15T18:21:38.231Z,5.28
2023-05-15T18:24:07.967Z,4.70
2023-05-15T18:26:35.449Z,4.83
2023-05-15T18:29:09.874Z,5.45
2023-05-15T18:31:38.348Z,5.07
2023-05-15T18:34:10.107Z,5.15
2023-05-15T18:36:40.412Z,5.50
2023-05-15T18:39:44.594Z,4.88
2023-05-15T18:45:44.285Z,5.35
2023-05-15T18:48:14.914Z,4.95
2023-05-15T18:50:44.226Z,5.60
2023-05-15T18:53:28.415Z,5.32
2023-05-15T18:55:59.250Z,5.20
2023-05-15T19:01:23.209Z,5.28
2023-05-15T19:04:30.337Z,5.72
2023-05-15T19:07:18.066Z,6.10
2023-05-15T19:43:06.196Z,6.05
2023-05-15T19:45:56.748Z,6.50
2023-05-15T19:49:03.109Z,6.65
2023-05-15T19:51:47.895Z,6.13
2023-05-15T20:00:01.678Z,5.65
2023-05-15T20:02:46.420Z,5.72
2023-05-15T20:08:09.346Z,7.22
2023-05-15T20:10:56.035Z,6.10
2023-05-15T20:13:39.177Z,6.65
2023-05-15T20:16:11.071Z,5.85
2023-05-15T20:18:44.353Z,5.70
2023-05-15T20:24:25.805Z,6.72
2023-05-15T20:26:58.339Z,8.85
2023-05-15T20:29:27.150Z,7.25
2023-05-15T20:31:57.653Z,7.30
2023-05-15T20:34:25.260Z,7.30
2023-05-15T20:36:56.658Z,6.67
2023-05-15T20:39:24.097Z,6.78
2023-05-15T20:41:56.843Z,6.28
2023-05-15T20:44:24.009Z,6.53
2023-05-15T20:46:53.590Z,6.85
2023-05-15T20:49:22.167Z,7.90
2023-05-15T20:51:55.706Z,8.10
2023-05-15T20:54:24.137Z,9.60
2023-05-15T20:56:52.413Z,8.75
2023-05-15T20:59:20.327Z,9.32
2023-05-15T21:04:20.041Z,7.97
2023-05-15T21:06:52.057Z,7.40
2023-05-15T21:09:23.475Z,7.90
2023-05-15T21:11:53.764Z,7.30
2023-05-15T21:14:25.992Z,6.60
2023-05-15T21:16:59.815Z,7.50
2023-05-15T21:19:33.292Z,7.65
2023-05-15T21:22:05.629Z,9.32
2023-05-15T21:24:45.965Z,13.90
2023-05-15T21:27:16.081Z,8.13
2023-05-15T21:34:56.196Z,5.60
2023-05-15T21:37:24.547Z,5.00
2023-05-15T21:42:40.911Z,5.47
2023-05-15T21:45:09.291Z,6.00
2023-05-15T21:50:22.616Z,4.88
2023-05-15T21:52:52.034Z,4.85
2023-05-15T21:55:23.457Z,5.47
2023-05-15T21:57:52.360Z,5.07
2023-05-15T22:00:20.677Z,5.05
2023-05-15T22:02:51.113Z,4.82
2023-05-15T22:05:21.857Z,4.82
2023-05-15T22:07:53.054Z,5.00
2023-05-15T22:10:26.385Z,4.97
2023-05-15T22:12:58.562Z,5.20
2023-05-15T22:15:27.419Z,5.10
2023-05-15T22:18:00.804Z,5.20
2023-05-15T22:20:30.259Z,4.55
2023-05-15T22:25:30.951Z,5.00
2023-05-15T22:27:58.955Z,4.57
2023-05-15T22:30:26.906Z,4.32
2023-05-15T22:33:00.234Z,4.43
2023-05-15T22:35:28.522Z,5.18
2023-05-15T22:37:59.534Z,4.60
2023-05-15T22:40:28.444Z,4.70
2023-05-15T22:42:57.969Z,4.10
2023-05-15T22:45:27.157Z,4.80
2023-05-15T22:47:55.061Z,5.05
2023-05-15T22:50:27.852Z,4.40
2023-05-15T22:52:57.091Z,4.40
2023-05-15T22:55:28.334Z,4.35
2023-05-15T22:58:00.788Z,4.50
2023-05-15T23:03:14.636Z,5.00
2023-05-15T23:05:47.193Z,4.22
2023-05-15T23:08:54.426Z,4.70
2023-05-15T23:11:27.214Z,4.72
2023-05-15T23:14:03.579Z,4.78
2023-05-15T23:16:32.906Z,4.88
2023-05-15T23:19:01.741Z,5.03
2023-05-15T23:21:30.513Z,4.32
2023-05-15T23:24:00.626Z,5.00
2023-05-15T23:26:28.669Z,4.88
2023-05-15T23:28:59.597Z,4.45
2023-05-15T23:31:28.988Z,4.72
2023-05-15T23:34:02.871Z,4.65
2023-05-15T23:36:30.190Z,4.50
2023-05-15T23:38:59.595Z,4.87
2023-05-15T23:43:55.377Z,4.40
2023-05-15T23:46:25.260Z,5.30
2023-05-15T23:48:53.567Z,4.70
2023-05-15T23:51:20.910Z,5.07
2023-05-15T23:53:57.221Z,4.63
2023-05-15T23:56:34.732Z,5.15
2023-05-15T23:59:03.898Z,4.72
